Time;durP1;ratioP1;P1;durP2;ratioP2;P2;SDS_P1;SDS_P2;PMS_P1;PMS_P2;Temp;Humidity;BMP_temperature;BMP_pressure;BME280_temperature;BME280_humidity;BME280_pressure;Samples;Min_cycle;Max_cycle;Signal;HPM_P1;HPM_P2
2022/09/30 00:04:49;;;;;;;52.63;32.23;;;;;;;7.96;94.17;99866.44;3471717;82;98290;-83
2022/09/30 00:09:50;;;;;;;50.77;31.57;;;;;;;7.98;94.45;99868.81;3458501;83;32437;-83
2022/09/30 00:14:51;;;;;;;47.20;30.40;;;;;;;8.01;94.55;99868.08;3465378;83;98304;-83
2022/09/30 00:19:51;;;;;;;46.83;30.37;;;;;;;8.04;94.42;99868.69;3468186;83;32253;-82
2022/09/30 00:24:52;;;;;;;50.53;32.47;;;;;;;8.05;94.60;99866.95;3413365;85;98266;-84
2022/09/30 00:29:53;;;;;;;49.10;30.40;;;;;;;8.08;94.70;99870.90;3416860;85;31718;-84
2022/09/30 00:34:54;;;;;;;47.43;30.15;;;;;;;8.06;94.36;99872.63;3412075;85;98219;-84
2022/09/30 00:39:54;;;;;;;50.73;33.43;;;;;;;8.06;94.70;99879.48;3413442;85;25982;-84
2022/09/30 00:45:05;;;;;;;48.80;31.90;;;;;;;8.07;94.58;99894.77;3407418;85;98214;-84
2022/09/30 00:50:27;;;;;;;48.78;30.08;;;;;;;8.07;94.71;99887.91;3406719;85;30078;-84
2022/09/30 00:55:45;;;;;;;50.08;31.12;;;;;;;8.07;94.76;99887.14;3407286;85;98249;-84
2022/09/30 01:00:47;;;;;;;46.33;30.82;;;;;;;8.11;94.93;99882.47;3422967;85;31166;-84
2022/09/30 01:05:50;;;;;;;49.50;31.20;;;;;;;8.11;94.87;99886.58;3412831;85;98886;-84
2022/09/30 01:10:51;;;;;;;47.95;31.00;;;;;;;8.15;95.08;99893.70;3433799;85;32188;-84
2022/09/30 01:16:17;;;;;;;49.33;30.23;;;;;;;8.21;94.92;99889.49;3406204;85;98466;-84
2022/09/30 01:21:29;;;;;;;53.85;32.85;;;;;;;8.24;95.00;99891.47;3405130;85;98525;-84
2022/09/30 01:27:26;;;;;;;57.03;34.97;;;;;;;8.28;94.97;99886.83;3429213;85;27938;-84
2022/09/30 01:32:58;;;;;;;51.73;31.37;;;;;;;8.33;95.08;99898.03;3420111;85;98735;-84
2022/09/30 01:38:16;;;;;;;43.00;28.60;;;;;;;8.33;94.93;99900.77;3429191;85;27873;-84
2022/09/30 01:43:38;;;;;;;49.93;30.57;;;;;;;8.35;94.85;99901.97;3422533;85;98574;-84
2022/09/30 01:49:02;;;;;;;52.45;32.60;;;;;;;8.38;94.84;99911.41;3439698;85;31796;-84
2022/09/30 01:54:14;;;;;;;45.60;29.65;;;;;;;8.40;94.71;99915.35;3417618;85;98693;-84
2022/09/30 01:59:31;;;;;;;44.03;28.00;;;;;;;8.43;94.85;99916.56;3429967;85;31248;-84
2022/09/30 02:04:40;;;;;;;45.05;28.52;;;;;;;8.46;94.68;99917.19;3425224;85;98346;-84
2022/09/30 02:09:48;;;;;;;46.42;28.67;;;;;;;8.47;94.75;99911.34;3429594;85;32348;-84
2022/09/30 02:15:00;;;;;;;44.93;28.60;;;;;;;8.49;94.61;99921.34;3425524;85;98266;-84
2022/09/30 02:20:10;;;;;;;48.83;28.97;;;;;;;8.53;94.66;99928.23;3440401;85;28999;-84
2022/09/30 02:25:28;;;;;;;49.30;32.13;;;;;;;8.54;94.55;99910.61;3468356;83;98347;-84
2022/09/30 02:30:29;;;;;;;50.07;32.13;;;;;;;8.53;94.85;99911.78;3476656;83;28200;-84
2022/09/30 02:35:38;;;;;;;45.73;29.83;;;;;;;8.52;94.57;99905.52;3462758;83;98571;-84
2022/09/30 02:40:49;;;;;;;48.95;32.58;;;;;;;8.54;94.59;99914.72;3462198;83;31319;-83
2022/09/30 02:46:19;;;;;;;45.12;28.32;;;;;;;8.51;94.78;99920.38;3467070;83;98520;-84
2022/09/30 02:51:41;;;;;;;49.90;31.73;;;;;;;8.51;94.87;99925.86;3451107;83;98760;-84
2022/09/30 02:57:17;;;;;;;45.35;28.87;;;;;;;8.49;94.87;99936.42;3484135;83;32826;-83
2022/09/30 03:02:20;;;;;;;45.65;28.62;;;;;;;8.51;94.95;99940.94;3460741;83;98641;-83
2022/09/30 03:07:20;;;;;;;45.03;29.70;;;;;;;8.50;94.94;99940.73;3475680;83;31630;-85
2022/09/30 03:12:47;;;;;;;45.03;28.13;;;;;;;8.53;94.81;99945.48;3473855;82;98309;-85
2022/09/30 03:18:02;;;;;;;47.43;30.13;;;;;;;8.55;94.79;99934.92;3464049;83;26525;-85
2022/09/30 03:23:24;;;;;;;51.00;30.65;;;;;;;8.58;94.83;99930.64;3443767;83;98369;-86
2022/09/30 03:28:36;;;;;;;50.50;30.68;;;;;;;8.59;94.68;99928.91;3411755;85;31831;-83
2022/09/30 03:33:55;;;;;;;43.83;27.35;;;;;;;8.61;94.71;99931.28;3376083;85;98676;-83
2022/09/30 03:39:34;;;;;;;47.17;30.12;;;;;;;8.62;94.58;99930.88;3413049;85;32251;-85
2022/09/30 03:44:50;;;;;;;49.03;29.70;;;;;;;8.64;94.65;99935.99;3386323;85;98624;-84
2022/09/30 03:49:58;;;;;;;47.73;29.10;;;;;;;8.64;94.71;99925.02;3411954;85;31510;-85
2022/09/30 03:55:03;;;;;;;46.42;28.30;;;;;;;8.66;94.66;99933.66;3406774;85;98250;-84
2022/09/30 04:00:06;;;;;;;52.35;31.15;;;;;;;8.68;94.55;99942.31;3412901;85;31841;-85
2022/09/30 04:05:07;;;;;;;52.13;29.83;;;;;;;8.70;94.51;99940.77;3407172;85;98581;-85
2022/09/30 04:10:08;;;;;;;44.40;27.20;;;;;;;8.72;94.38;99960.98;3409081;85;25972;-84
2022/09/30 04:15:10;;;;;;;47.77;30.67;;;;;;;8.74;94.45;99956.70;3407091;85;98734;-84
2022/09/30 04:20:11;;;;;;;44.87;29.57;;;;;;;8.76;94.57;99967.27;3413467;85;25810;-84
2022/09/30 04:25:12;;;;;;;43.80;28.80;;;;;;;8.76;94.50;99956.30;3481176;82;98475;-84
2022/09/30 04:30:13;;;;;;;49.33;29.27;;;;;;;8.77;94.46;99966.91;3524584;82;34794;-84
2022/09/30 04:35:14;;;;;;;52.97;33.23;;;;;;;8.78;94.48;99968.48;3500220;82;98532;-84
2022/09/30 04:40:16;;;;;;;49.40;30.60;;;;;;;8.78;94.50;99968.48;3522411;82;34901;-84
2022/09/30 04:45:16;;;;;;;47.33;29.37;;;;;;;8.78;94.62;99970.45;3471773;83;98640;-84
2022/09/30 04:50:17;;;;;;;46.20;29.50;;;;;;;8.79;94.57;99971.42;3536453;82;34990;-84
2022/09/30 04:55:18;;;;;;;50.13;31.10;;;;;;;8.79;94.47;99981.02;3518100;82;98393;-83
2022/09/30 05:00:19;;;;;;;45.33;28.83;;;;;;;8.78;94.32;99989.66;3525801;82;34810;-83
2022/09/30 05:05:20;;;;;;;44.07;29.17;;;;;;;8.75;94.20;99999.42;3522437;82;98262;-84
2022/09/30 05:10:20;;;;;;;40.23;26.55;;;;;;;8.69;94.18;99996.81;3518488;82;34907;-84
2022/09/30 05:15:21;;;;;;;42.33;26.10;;;;;;;8.66;94.32;100003.60;3522892;82;98384;-84
2022/09/30 05:20:24;;;;;;;46.47;28.93;;;;;;;8.60;94.42;100003.73;3525635;82;25812;-85
2022/09/30 05:25:25;;;;;;;43.57;27.73;;;;;;;8.56;94.39;99998.80;3404261;84;98529;-85
2022/09/30 05:30:26;;;;;;;48.00;28.10;;;;;;;8.53;94.48;99996.80;3414540;85;25595;-86
2022/09/30 05:35:27;;;;;;;42.20;26.93;;;;;;;8.51;94.39;100016.95;3415699;85;98657;-86
2022/09/30 05:45:38;;;;;;;41.53;26.02;;;;;;;8.43;94.66;100022.93;3381627;85;98890;-86
2022/09/30 05:50:38;;;;;;;40.75;26.23;;;;;;;8.41;94.61;100038.95;3415084;85;34505;-87
2022/09/30 05:55:39;;;;;;;39.17;26.27;;;;;;;8.40;95.01;100044.83;3446661;84;98795;-87
2022/09/30 06:00:45;;;;;;;45.97;29.20;;;;;;;8.37;94.81;100051.03;3407428;85;25969;-86
2022/09/30 06:05:46;;;;;;;45.03;29.95;;;;;;;8.32;94.89;100048.61;3418415;85;98740;-87
2022/09/30 06:10:47;;;;;;;48.07;32.73;;;;;;;8.31;95.07;100053.89;3425414;85;25902;-87
2022/09/30 06:16:01;;;;;;;45.53;30.17;;;;;;;8.33;95.11;100061.95;3455484;84;98756;-87
2022/09/30 06:21:04;;;;;;;48.95;31.20;;;;;;;8.38;95.26;100073.98;3424101;85;33651;-87
2022/09/30 06:26:08;;;;;;;47.70;30.07;;;;;;;8.45;95.37;100087.01;3414708;85;98613;-87
2022/09/30 06:31:10;;;;;;;49.40;32.35;;;;;;;8.53;95.75;100079.07;3425457;85;34871;-87
2022/09/30 06:36:10;;;;;;;50.60;32.93;;;;;;;8.62;96.03;100089.97;3410424;85;98515;-87
2022/09/30 06:41:12;;;;;;;51.83;32.63;;;;;;;8.72;96.13;100096.78;3425121;85;27242;-87
2022/09/30 06:46:13;;;;;;;52.90;33.43;;;;;;;8.81;96.17;100106.30;3414236;85;98465;-87
2022/09/30 06:51:14;;;;;;;57.13;35.97;;;;;;;8.92;96.35;100100.94;3416664;85;25862;-87
2022/09/30 06:56:17;;;;;;;58.47;37.10;;;;;;;9.01;96.49;100098.14;3413701;85;98356;-87
2022/09/30 07:01:19;;;;;;;54.90;34.03;;;;;;;9.12;96.54;100105.91;3417725;85;98610;-86
2022/09/30 07:06:20;;;;;;;58.33;35.30;;;;;;;9.22;96.52;100098.35;3424388;85;35141;-87
2022/09/30 07:11:21;;;;;;;55.57;35.97;;;;;;;9.34;96.50;100107.73;3411040;85;98544;-86
2022/09/30 07:16:24;;;;;;;49.57;33.83;;;;;;;9.47;96.53;100120.02;3425834;85;33904;-86
2022/09/30 07:21:24;;;;;;;51.73;33.23;;;;;;;9.61;96.46;100118.00;3418664;85;98957;-85
2022/09/30 07:26:27;;;;;;;56.97;37.53;;;;;;;9.75;96.36;100121.67;3409100;85;26187;-85
2022/09/30 07:31:27;;;;;;;53.70;34.73;;;;;;;9.90;96.45;100127.50;3383125;85;98917;-86
2022/09/30 07:36:29;;;;;;;53.77;35.63;;;;;;;10.06;96.05;100133.56;3417543;85;26502;-85
2022/09/30 07:41:30;;;;;;;55.07;35.63;;;;;;;10.20;95.72;100139.77;3420358;85;99171;-87
2022/09/30 07:46:33;;;;;;;55.23;37.33;;;;;;;10.28;95.50;100139.44;3427003;85;26012;-86
2022/09/30 07:51:38;;;;;;;54.85;33.88;;;;;;;10.37;95.14;100145.37;3420403;85;99131;-86
2022/09/30 07:56:40;;;;;;;53.78;34.55;;;;;;;10.46;94.82;100149.20;3414840;85;34790;-86
2022/09/30 08:01:41;;;;;;;55.90;36.03;;;;;;;10.56;94.88;100149.84;3418232;85;98937;-86
2022/09/30 08:06:49;;;;;;;202.07;149.83;;;;;;;10.69;94.37;100156.63;3427315;85;25949;-87
2022/09/30 08:11:50;;;;;;;62.15;44.38;;;;;;;10.80;94.21;100168.48;3419341;85;99410;-87
2022/09/30 08:16:52;;;;;;;54.77;34.90;;;;;;;10.91;93.62;100166.58;3421895;85;27169;-86
2022/09/30 08:21:53;;;;;;;57.40;39.33;;;;;;;11.06;93.52;100169.62;3427248;84;99200;-88
2022/09/30 08:26:55;;;;;;;56.20;37.40;;;;;;;11.23;93.38;100175.19;3413038;85;26332;-88
2022/09/30 08:31:55;;;;;;;63.70;44.07;;;;;;;11.47;93.40;100181.39;3490326;83;98881;-88
2022/09/30 08:36:56;;;;;;;67.37;41.10;;;;;;;11.82;93.79;100173.84;3441815;84;26370;-90
2022/09/30 08:42:21;;;;;;;56.30;37.60;;;;;;;12.21;93.62;100188.47;3439317;84;98929;-88
2022/09/30 08:47:39;;;;;;;54.35;36.38;;;;;;;12.64;92.31;100196.33;3440404;84;36027;-88
2022/09/30 08:52:45;;;;;;;45.73;32.83;;;;;;;13.23;91.81;100194.65;3431278;84;99030;-88
2022/09/30 08:57:46;;;;;;;37.95;24.87;;;;;;;13.88;92.00;100191.39;3440866;84;35465;-87
2022/09/30 09:02:58;;;;;;;33.95;23.07;;;;;;;14.60;91.04;100184.95;3398737;84;99402;-88
2022/09/30 09:08:34;;;;;;;27.77;20.35;;;;;;;15.40;88.40;100183.30;3444661;84;34801;-88
2022/09/30 09:14:00;;;;;;;30.82;21.85;;;;;;;15.99;86.61;100189.44;3382636;84;99322;-89
2022/09/30 09:19:12;;;;;;;33.05;19.25;;;;;;;16.62;85.62;100194.00;3490842;81;26752;-88
2022/09/30 09:24:21;;;;;;;35.92;22.27;;;;;;;17.46;83.52;100195.82;3429252;84;99271;-89
2022/09/30 09:29:39;;;;;;;25.88;18.90;;;;;;;18.20;81.17;100201.32;3412902;85;34878;-89
2022/09/30 09:34:40;;;;;;;25.75;16.73;;;;;;;18.65;79.40;100200.06;3416023;85;99106;-87
2022/09/30 09:40:02;;;;;;;24.45;17.17;;;;;;;18.89;75.58;100202.21;3416362;85;35234;-87
2022/09/30 09:45:29;;;;;;;26.68;17.73;;;;;;;19.23;75.89;100201.73;3407303;85;98761;-89
2022/09/30 09:50:47;;;;;;;18.75;12.00;;;;;;;19.37;73.47;100198.53;3478220;83;34797;-88
2022/09/30 09:55:53;;;;;;;17.95;11.75;;;;;;;19.54;70.92;100198.04;3467229;83;98995;-88
2022/09/30 10:01:10;;;;;;;;;;;;;;;19.71;70.15;100191.15;3419768;85;26370;-87
2022/09/30 10:06:11;;;;;;;15.40;10.03;;;;;;;19.77;64.61;100200.54;3473500;83;85025;-89
2022/09/30 10:11:26;;;;;;;16.73;11.10;;;;;;;19.59;66.79;100200.88;3400896;85;34916;-87
2022/09/30 10:16:34;;;;;;;18.20;12.10;;;;;;;19.50;67.46;100199.38;3480559;83;26688;-89
2022/09/30 10:21:35;;;;;;;21.87;10.78;;;;;;;19.61;66.50;100204.80;3396875;85;98842;-90
2022/09/30 10:26:43;;;;;;;16.50;10.98;;;;;;;19.75;65.75;100205.80;3473234;82;33504;-89
2022/09/30 10:31:45;;;;;;;18.40;10.82;;;;;;;19.55;64.04;100194.02;3481631;83;98969;-88
2022/09/30 10:36:47;;;;;;;19.12;11.48;;;;;;;19.82;63.73;100185.23;3480672;83;35921;-90
2022/09/30 10:41:50;;;;;;;24.95;12.95;;;;;;;19.95;63.51;100197.98;3481859;83;99994;-90
2022/09/30 10:46:56;;;;;;;29.98;13.65;;;;;;;20.17;63.22;100200.31;3490381;82;35510;-94
2022/09/30 10:51:58;;;;;;;;;;;;;;;20.38;62.76;100206.63;3483185;82;99022;-90
2022/09/30 10:57:06;;;;;;;16.05;10.55;;;;;;;20.47;59.16;100205.95;3477607;83;34887;-89
2022/09/30 11:02:42;;;;;;;14.43;10.13;;;;;;;20.69;61.22;100209.60;3471673;83;99178;-94
2022/09/30 11:07:54;;;;;;;17.23;12.20;;;;;;;20.99;58.42;100211.81;3472392;82;98918;-93
2022/09/30 11:13:03;;;;;;;19.73;12.73;;;;;;;20.91;58.51;100209.08;3484207;82;34845;-87
2022/09/30 11:18:18;;;;;;;17.05;12.75;;;;;;;20.82;58.31;100201.98;3483653;83;99289;-88
2022/09/30 11:23:30;;;;;;;20.72;13.45;;;;;;;20.97;58.47;100192.67;3492681;82;25854;-88
2022/09/30 11:29:06;;;;;;;20.25;13.95;;;;;;;20.95;58.03;100204.14;3526410;82;98827;-95
2022/09/30 11:34:22;;;;;;;16.73;12.47;;;;;;;20.67;57.13;100194.70;3522956;82;25961;-88
2022/09/30 11:39:37;;;;;;;17.27;12.60;;;;;;;20.65;57.76;100183.80;3419047;83;99004;-88
2022/09/30 11:44:41;;;;;;;16.13;11.37;;;;;;;20.32;57.58;100186.70;3441029;84;26306;-90
2022/09/30 11:50:06;;;;;;;12.05;7.20;;;;;;;20.17;58.32;100182.15;3440970;84;99032;-87
2022/09/30 11:55:37;;;;;;;10.32;6.37;;;;;;;20.21;57.77;100189.81;3432557;84;35499;-88
2022/09/30 12:00:46;;;;;;;10.28;6.28;;;;;;;20.03;55.58;100195.76;3416062;84;99265;-86
2022/09/30 12:05:58;;;;;;;10.28;6.60;;;;;;;19.60;54.96;100187.09;3464552;83;36035;-88
2022/09/30 12:11:09;;;;;;;11.45;7.22;;;;;;;19.25;55.01;100183.34;3461645;83;98812;-87
2022/09/30 12:16:16;;;;;;;24.60;9.20;;;;;;;19.15;56.67;100182.19;3476311;83;36205;-90
2022/09/30 12:21:33;;;;;;;10.65;6.22;;;;;;;19.08;55.34;100176.18;3436211;84;98629;-88
2022/09/30 12:26:34;;;;;;;12.25;5.55;;;;;;;18.97;57.64;100166.55;3403644;84;35367;-87
2022/09/30 12:31:50;;;;;;;11.70;6.87;;;;;;;19.08;57.32;100170.60;3455472;84;98653;-92
2022/09/30 12:37:17;;;;;;;10.13;6.33;;;;;;;19.13;56.61;100171.46;3411294;85;25973;-89
2022/09/30 12:42:45;;;;;;;;;;;;;;;19.09;56.65;100168.01;3420750;85;98606;-88
2022/09/30 12:47:53;;;;;;;9.00;4.97;;;;;;;19.09;54.74;100168.01;3413747;84;84966;-94
2022/09/30 12:52:56;;;;;;;9.45;5.40;;;;;;;19.06;56.41;100175.84;3463955;84;35405;-89
2022/09/30 12:58:01;;;;;;;9.85;5.45;;;;;;;19.00;55.38;100179.61;3426722;85;98678;-87
2022/09/30 13:03:14;;;;;;;10.88;6.45;;;;;;;18.92;55.53;100169.88;3403381;85;34858;-92
2022/09/30 13:08:22;;;;;;;10.63;5.85;;;;;;;18.87;55.77;100180.17;3506942;82;98729;-89
2022/09/30 13:13:27;;;;;;;9.95;5.62;;;;;;;18.86;55.37;100179.37;3512652;82;35424;-89
2022/09/30 13:18:40;;;;;;;9.33;5.37;;;;;;;18.89;55.97;100175.72;3510517;82;98710;-89
2022/09/30 13:23:47;;;;;;;11.70;6.25;;;;;;;18.88;56.82;100176.16;3511693;82;98540;-89
2022/09/30 13:28:50;;;;;;;13.15;7.35;;;;;;;18.58;55.95;100184.29;3524060;82;34828;-87
2022/09/30 13:34:08;;;;;;;12.33;6.75;;;;;;;18.40;56.41;100191.52;3527051;82;99041;-87
2022/09/30 13:39:46;;;;;;;11.70;6.58;;;;;;;18.33;57.79;100184.73;3531203;82;34891;-86
2022/09/30 13:45:08;;;;;;;16.62;6.62;;;;;;;18.24;56.97;100192.28;3525243;82;98972;-89
2022/09/30 13:50:26;;;;;;;13.65;8.10;;;;;;;17.99;56.43;100196.86;3532442;82;34822;-87
2022/09/30 13:55:47;;;;;;;9.50;5.70;;;;;;;17.70;56.72;100197.28;3506421;82;98955;-89
2022/09/30 14:01:24;;;;;;;13.18;8.58;;;;;;;17.54;58.21;100193.85;3527561;82;35995;-89
2022/09/30 14:06:51;;;;;;;15.70;8.85;;;;;;;17.55;58.78;100202.38;3512222;81;98719;-89
2022/09/30 14:12:03;;;;;;;15.50;8.65;;;;;;;17.48;59.16;100197.55;3534628;82;34886;-89
2022/09/30 14:17:25;;;;;;;15.68;9.75;;;;;;;17.39;59.38;100196.73;3523677;82;98586;-94
2022/09/30 14:22:28;;;;;;;17.42;10.55;;;;;;;17.43;59.62;100197.46;3526885;82;35443;-90
2022/09/30 14:27:56;;;;;;;16.27;10.60;;;;;;;17.35;59.07;100196.61;3383536;85;98729;-85
2022/09/30 14:33:01;;;;;;;13.50;9.60;;;;;;;17.23;59.37;100200.80;3428938;85;35563;-88
2022/09/30 14:38:19;;;;;;;15.17;10.33;;;;;;;17.13;59.51;100200.43;3419291;85;98880;-89
2022/09/30 14:43:32;;;;;;;20.85;12.78;;;;;;;16.96;59.68;100184.07;3431320;85;35591;-91
2022/09/30 14:48:36;;;;;;;20.23;12.47;;;;;;;16.83;59.93;100188.07;3421045;85;35976;-88
2022/09/30 14:53:54;;;;;;;19.67;10.93;;;;;;;16.70;60.48;100189.11;3412248;85;99275;-87
2022/09/30 14:58:58;;;;;;;13.68;7.62;;;;;;;16.63;61.41;100194.17;3419829;85;34814;-88
2022/09/30 15:04:13;;;;;;;15.15;10.15;;;;;;;16.50;62.31;100202.14;3457369;84;98901;-87
2022/09/30 15:09:24;;;;;;;16.30;10.13;;;;;;;16.39;62.30;100195.38;3422871;85;26109;-87
2022/09/30 15:14:26;;;;;;;17.17;9.50;;;;;;;16.27;62.75;100200.70;3413473;85;99204;-87
2022/09/30 15:19:34;;;;;;;14.60;9.55;;;;;;;16.20;63.30;100206.37;3419009;85;35346;-89
2022/09/30 15:24:36;;;;;;;13.98;8.45;;;;;;;16.10;63.40;100199.78;3449085;84;98861;-88
2022/09/30 15:29:37;;;;;;;21.25;14.15;;;;;;;16.02;64.18;100213.57;3409291;85;35399;-88
2022/09/30 15:34:38;;;;;;;25.90;13.23;;;;;;;15.93;63.30;100213.32;3383405;85;98938;-89
2022/09/30 15:45:32;;;;;;;19.85;13.55;;;;;;;15.68;63.48;100233.67;3457070;83;98928;-88
2022/09/30 15:50:46;;;;;;;18.82;13.53;;;;;;;15.53;63.57;100232.27;3462623;83;35339;-88
2022/09/30 15:55:50;;;;;;;16.42;11.30;;;;;;;15.42;64.11;100231.61;3388139;85;98922;-88
2022/09/30 16:00:54;;;;;;;16.95;12.35;;;;;;;15.34;64.38;100240.42;3473540;83;34863;-88
2022/09/30 16:06:11;;;;;;;13.98;9.03;;;;;;;15.23;65.13;100235.56;3373785;85;98937;-88
2022/09/30 16:11:29;;;;;;;13.28;8.53;;;;;;;15.13;66.14;100240.61;3477392;83;35408;-88
2022/09/30 16:16:33;;;;;;;12.47;7.87;;;;;;;14.96;67.38;100239.61;3468049;83;99397;-88
2022/09/30 16:21:53;;;;;;;14.05;9.20;;;;;;;14.78;68.66;100244.50;3482964;83;35213;-88
2022/09/30 16:26:52;;;;;;;16.48;9.33;;;;;;;14.61;69.28;100239.14;3462002;83;99000;-88
2022/09/30 16:31:55;;;;;;;15.00;10.28;;;;;;;14.43;70.24;100240.66;3484872;83;35385;-88
2022/09/30 16:37:10;;;;;;;14.35;9.50;;;;;;;14.27;71.01;100253.41;3485321;83;98754;-88
2022/09/30 16:42:13;;;;;;;16.32;10.30;;;;;;;14.10;71.67;100250.14;3481444;83;34877;-87
2022/09/30 16:47:18;;;;;;;15.93;10.35;;;;;;;13.93;72.35;100260.71;3471089;83;99011;-88
2022/09/30 16:52:19;;;;;;;21.20;11.00;;;;;;;13.76;72.94;100266.53;3488913;83;36337;-88
2022/09/30 16:57:19;;;;;;;22.30;11.83;;;;;;;13.59;73.60;100256.34;3479114;83;98909;-88
2022/09/30 17:02:20;;;;;;;22.70;12.73;;;;;;;13.45;74.14;100263.29;3480409;83;34276;-89
2022/09/30 17:07:21;;;;;;;26.12;15.90;;;;;;;13.30;74.71;100254.84;3479807;83;98798;-88
2022/09/30 17:12:23;;;;;;;29.97;18.87;;;;;;;13.15;75.23;100263.57;3482645;83;32459;-88
2022/09/30 17:17:24;;;;;;;32.50;19.97;;;;;;;13.01;75.64;100258.05;3475526;83;98649;-88
2022/09/30 17:22:25;;;;;;;84.20;49.40;;;;;;;12.88;76.19;100263.20;3480648;83;32542;-88
2022/09/30 17:27:25;;;;;;;101.10;58.27;;;;;;;12.76;76.68;100255.90;3476749;83;99005;-88
2022/09/30 17:32:27;;;;;;;84.73;50.87;;;;;;;12.65;77.12;100264.16;3485418;83;32631;-88
2022/09/30 17:37:31;;;;;;;56.67;35.27;;;;;;;12.55;77.47;100252.55;3465188;83;98892;-88
2022/09/30 17:47:51;;;;;;;56.30;36.40;;;;;;;12.36;78.30;100254.30;3480847;83;99315;-88
2022/09/30 17:52:51;;;;;;;47.90;33.43;;;;;;;12.25;78.52;100250.74;3483515;83;28168;-88
2022/09/30 17:57:54;;;;;;;51.45;37.65;;;;;;;12.18;78.99;100270.63;3474025;83;99144;-88
2022/09/30 18:02:55;;;;;;;53.90;38.03;;;;;;;12.07;79.34;100271.20;3475936;83;25859;-88
2022/09/30 18:07:56;;;;;;;47.90;33.73;;;;;;;11.99;79.79;100279.27;3481546;83;98620;-88
2022/09/30 18:12:58;;;;;;;42.70;30.37;;;;;;;11.90;80.22;100289.87;3478446;83;25857;-88
2022/09/30 18:17:59;;;;;;;41.93;30.30;;;;;;;11.85;80.55;100286.91;3475418;83;98990;-88
2022/09/30 18:23:00;;;;;;;42.00;29.70;;;;;;;11.78;80.83;100302.02;3474751;83;25860;-88
2022/09/30 18:28:01;;;;;;;38.23;27.67;;;;;;;11.71;81.00;100298.44;3486825;82;98769;-88
2022/09/30 18:33:05;;;;;;;37.37;26.53;;;;;;;11.63;81.30;100292.13;3521080;82;25812;-88
2022/09/30 18:38:06;;;;;;;37.90;26.10;;;;;;;11.56;81.64;100295.41;3521695;82;98759;-88
2022/09/30 18:43:09;;;;;;;37.90;25.47;;;;;;;11.51;81.74;100301.29;3517125;82;26202;-88
2022/09/30 18:48:11;;;;;;;37.75;25.60;;;;;;;11.43;82.08;100305.97;3525347;82;98724;-88
2022/09/30 18:53:12;;;;;;;35.67;22.10;;;;;;;11.36;82.15;100306.52;3514795;82;27392;-88
2022/09/30 18:58:18;;;;;;;32.27;21.83;;;;;;;11.28;82.44;100295.27;3413734;85;98802;-88
2022/09/30 19:03:17;;;;;;;26.93;20.43;;;;;;;11.22;82.44;100303.66;3431373;84;35415;-88
2022/09/30 19:08:18;;;;;;;32.53;21.33;;;;;;;11.15;82.82;100295.36;3444048;84;98946;-88
2022/09/30 19:13:20;;;;;;;29.97;20.07;;;;;;;11.09;83.25;100292.19;3484400;83;28073;-88
2022/09/30 19:18:21;;;;;;;29.77;19.30;;;;;;;11.07;83.29;100292.37;3443056;84;98587;-88
2022/09/30 19:23:22;;;;;;;29.73;20.07;;;;;;;11.01;83.43;100287.78;3448200;84;25991;-88
2022/09/30 19:28:23;;;;;;;30.50;18.80;;;;;;;10.97;83.78;100290.32;3436595;84;98499;-88
2022/09/30 19:33:26;;;;;;;32.23;20.10;;;;;;;10.94;84.11;100281.44;3499791;83;25776;-88
2022/09/30 19:38:31;;;;;;;26.97;18.15;;;;;;;10.91;84.03;100287.73;3503567;83;98536;-88
2022/09/30 19:43:33;;;;;;;28.23;18.53;;;;;;;10.88;84.49;100275.52;3451226;83;98951;-87
2022/09/30 19:48:35;;;;;;;30.97;18.37;;;;;;;10.85;84.39;100282.38;3505805;83;34296;-88
2022/09/30 19:53:40;;;;;;;28.53;17.67;;;;;;;10.82;84.58;100281.75;3493848;83;98877;-88
2022/09/30 19:58:46;;;;;;;24.18;16.35;;;;;;;10.80;84.41;100273.86;3470327;83;32996;-88
2022/09/30 20:03:48;;;;;;;30.30;18.30;;;;;;;10.78;84.86;100273.47;3494222;83;98865;-88
2022/09/30 20:08:52;;;;;;;27.30;15.70;;;;;;;10.75;85.00;100275.59;3500061;83;31012;-89
2022/09/30 20:19:17;;;;;;;25.62;17.67;;;;;;;10.76;85.51;100273.64;3491699;83;35356;-88
2022/09/30 20:24:18;;;;;;;26.77;18.47;;;;;;;10.73;85.67;100271.06;3492798;83;99026;-88
2022/09/30 20:29:19;;;;;;;28.00;18.47;;;;;;;10.72;85.57;100283.25;3512141;82;25797;-89
2022/09/30 20:34:20;;;;;;;28.77;17.57;;;;;;;10.69;85.73;100269.47;3457551;84;98840;-88
2022/09/30 20:39:22;;;;;;;27.37;17.63;;;;;;;10.65;85.76;100275.52;3394134;85;26592;-88
2022/09/30 20:44:23;;;;;;;29.87;18.87;;;;;;;10.60;85.93;100271.73;3415517;85;99318;-88
2022/09/30 20:49:24;;;;;;;30.63;18.40;;;;;;;10.59;85.93;100269.59;3422612;85;27817;-88
2022/09/30 20:54:25;;;;;;;29.13;19.80;;;;;;;10.57;86.11;100267.02;3421683;85;99287;-89
2022/09/30 20:59:26;;;;;;;26.77;17.17;;;;;;;10.53;86.09;100266.19;3429812;85;32983;-89
2022/09/30 21:04:26;;;;;;;26.47;17.07;;;;;;;10.48;86.04;100263.78;3406463;85;98984;-87
2022/09/30 21:09:27;;;;;;;27.93;18.47;;;;;;;10.45;86.42;100265.33;3429237;85;32954;-88
2022/09/30 21:14:28;;;;;;;31.02;18.98;;;;;;;10.43;86.23;100273.75;3405610;85;98927;-87
2022/09/30 21:19:32;;;;;;;27.17;18.40;;;;;;;10.38;86.29;100270.78;3407826;85;28329;-87
2022/09/30 21:24:32;;;;;;;31.23;20.45;;;;;;;10.32;86.40;100279.74;3499858;82;98770;-88
2022/09/30 21:29:33;;;;;;;29.93;18.67;;;;;;;10.27;86.61;100275.39;3495821;82;26540;-89
2022/09/30 21:34:34;;;;;;;30.23;19.60;;;;;;;10.25;86.79;100277.70;3467416;82;99187;-88
2022/09/30 21:39:35;;;;;;;29.57;18.80;;;;;;;10.24;87.02;100277.50;3479929;82;26061;-88
2022/09/30 21:44:35;;;;;;;30.60;19.47;;;;;;;10.22;87.50;100266.10;3473807;83;98888;-88
2022/09/30 21:49:37;;;;;;;31.87;19.40;;;;;;;10.21;87.29;100271.41;3486011;83;26287;-87
2022/09/30 21:54:39;;;;;;;31.57;19.63;;;;;;;10.21;87.54;100277.47;3463344;83;98829;-88
2022/09/30 21:59:42;;;;;;;31.00;19.10;;;;;;;10.22;87.72;100277.67;3454351;83;26563;-88
2022/09/30 22:04:42;;;;;;;31.00;19.97;;;;;;;10.21;87.65;100274.72;3474138;83;98965;-87
2022/09/30 22:09:43;;;;;;;35.50;22.77;;;;;;;10.10;88.00;100251.26;3469536;83;25815;-87
2022/09/30 22:14:44;;;;;;;33.73;21.07;;;;;;;10.21;88.04;100278.28;3456677;82;99305;-88
2022/09/30 22:19:45;;;;;;;38.83;23.37;;;;;;;10.25;88.27;100281.06;3456892;83;26536;-89
2022/09/30 22:24:46;;;;;;;35.23;22.57;;;;;;;10.26;88.39;100277.91;3478910;83;99382;-88
2022/09/30 22:29:48;;;;;;;41.23;24.60;;;;;;;10.27;88.60;100267.70;3477773;83;26570;-88
2022/09/30 22:40:08;;;;;;;38.95;24.37;;;;;;;10.28;88.70;100265.96;3481667;83;31906;-88
2022/09/30 22:45:09;;;;;;;39.40;25.37;;;;;;;10.28;89.19;100267.91;3481188;82;99095;-87
2022/09/30 22:50:10;;;;;;;37.33;24.57;;;;;;;10.25;88.87;100252.95;3478091;83;26532;-88
2022/09/30 22:55:13;;;;;;;37.87;25.13;;;;;;;10.23;89.12;100255.30;3472312;83;98933;-88
2022/09/30 23:00:14;;;;;;;35.95;23.35;;;;;;;10.19;89.18;100258.59;3480759;83;33012;-88
2022/09/30 23:05:15;;;;;;;36.00;22.33;;;;;;;10.16;89.10;100262.12;3479085;82;98788;-87
2022/09/30 23:10:16;;;;;;;37.00;24.87;;;;;;;10.14;89.03;100261.69;3475547;83;26314;-88
2022/09/30 23:15:16;;;;;;;39.07;23.50;;;;;;;10.11;89.06;100256.95;3474199;83;99125;-88
2022/09/30 23:20:17;;;;;;;35.20;22.43;;;;;;;10.06;89.16;100255.12;3474180;83;26381;-88
2022/09/30 23:25:18;;;;;;;33.97;22.80;;;;;;;10.02;89.31;100260.55;3473029;82;98612;-89
2022/09/30 23:30:19;;;;;;;37.07;23.67;;;;;;;9.96;89.43;100247.52;3494864;82;26441;-88
2022/09/30 23:35:19;;;;;;;36.38;22.65;;;;;;;9.90;89.20;100246.27;3506173;82;98584;-88
2022/09/30 23:40:20;;;;;;;39.60;23.77;;;;;;;9.85;89.75;100244.66;3516362;82;33165;-89
2022/09/30 23:45:21;;;;;;;38.37;23.23;;;;;;;9.81;90.11;100260.92;3522184;82;98548;-88
2022/09/30 23:50:24;;;;;;;36.80;23.03;;;;;;;9.76;90.23;100251.03;3530654;82;26653;-88
2022/09/30 23:55:28;;;;;;;41.10;23.22;;;;;;;9.69;90.53;100248.78;3521468;82;98639;-89
